Time;durP1;ratioP1;P1;durP2;ratioP2;P2;SDS_P1;SDS_P2;PMS_P1;PMS_P2;Temp;Humidity;BMP_temperature;BMP_pressure;BME280_temperature;BME280_humidity;BME280_pressure;Samples;Min_cycle;Max_cycle;Signal;HPM_P1;HPM_P2
2022/07/13 00:01:32;;;;;;;7.05;4.75;;;21.30;36.00;;;;;;5016353;28;20458;-77
2022/07/13 00:03:58;;;;;;;7.60;4.50;;;21.40;34.70;;;;;;5017023;28;20926;-76
2022/07/13 00:06:23;;;;;;;7.15;5.10;;;21.50;34.10;;;;;;5014372;28;20391;-77
2022/07/13 00:08:49;;;;;;;12.10;4.85;;;21.50;34.00;;;;;;5013508;28;20723;-76
2022/07/13 00:11:14;;;;;;;5.27;4.77;;;21.60;33.70;;;;;;5014712;28;20388;-77
2022/07/13 00:13:40;;;;;;;7.70;4.77;;;21.60;33.80;;;;;;5014140;28;20447;-77
2022/07/13 00:16:06;;;;;;;5.70;5.10;;;21.70;33.60;;;;;;5014268;28;20793;-77
2022/07/13 00:18:31;;;;;;;6.32;4.60;;;21.70;33.60;;;;;;5012384;28;20980;-76
2022/07/13 00:20:57;;;;;;;5.97;4.90;;;21.60;34.10;;;;;;5016631;28;20443;-77
2022/07/13 00:23:23;;;;;;;8.45;5.50;;;21.50;34.50;;;;;;5015579;28;20731;-77
2022/07/13 00:25:49;;;;;;;7.82;5.03;;;21.50;34.90;;;;;;5016719;28;20392;-77
2022/07/13 00:28:14;;;;;;;6.22;5.10;;;21.50;35.10;;;;;;5017880;28;20782;-78
2022/07/13 00:30:40;;;;;;;7.80;4.97;;;21.50;35.00;;;;;;5019163;28;20442;-76
2022/07/13 00:33:07;;;;;;;6.63;4.93;;;21.50;35.50;;;;;;5016614;28;20403;-76
2022/07/13 00:35:33;;;;;;;9.88;5.22;;;21.50;35.50;;;;;;5016331;28;20392;-75
2022/07/13 00:37:58;;;;;;;7.22;4.60;;;21.40;35.40;;;;;;5014965;28;20385;-76
2022/07/13 00:40:24;;;;;;;9.57;5.13;;;21.40;35.20;;;;;;5014252;28;20413;-77
2022/07/13 00:42:49;;;;;;;6.70;5.18;;;21.40;35.40;;;;;;5012364;28;20798;-76
2022/07/13 00:45:16;;;;;;;6.65;4.65;;;21.50;34.90;;;;;;5012745;28;20393;-76
2022/07/13 00:47:42;;;;;;;7.15;5.22;;;21.50;34.90;;;;;;5013705;28;20801;-77
2022/07/13 00:50:09;;;;;;;9.52;5.40;;;21.50;34.90;;;;;;5012616;28;20392;-78
2022/07/13 00:52:36;;;;;;;6.93;4.85;;;21.40;34.90;;;;;;5012227;28;20417;-76
2022/07/13 00:55:04;;;;;;;7.88;5.25;;;21.40;34.90;;;;;;5012139;28;20416;-77
2022/07/13 00:57:34;;;;;;;6.88;4.90;;;21.70;33.70;;;;;;5012933;28;20692;-75
2022/07/13 01:00:00;;;;;;;8.02;5.53;;;21.80;32.60;;;;;;5013884;28;20385;-75
2022/07/13 01:02:26;;;;;;;7.97;6.03;;;21.80;33.50;;;;;;5013735;28;20389;-76
2022/07/13 01:04:52;;;;;;;7.20;5.07;;;21.60;33.70;;;;;;5013585;28;20480;-77
2022/07/13 01:07:18;;;;;;;7.40;5.20;;;21.60;33.40;;;;;;5013852;28;20423;-76
2022/07/13 01:09:43;;;;;;;8.38;5.07;;;21.50;34.50;;;;;;5012324;28;20409;-76
2022/07/13 01:12:09;;;;;;;7.88;4.95;;;21.50;34.70;;;;;;5012342;28;20758;-76
2022/07/13 01:14:36;;;;;;;8.80;5.27;;;21.40;35.30;;;;;;5012309;28;20408;-76
2022/07/13 01:17:02;;;;;;;10.32;4.93;;;21.40;35.30;;;;;;5012073;28;20397;-75
2022/07/13 01:19:28;;;;;;;6.40;4.93;;;21.40;35.20;;;;;;5014119;28;20460;-75
2022/07/13 01:22:00;;;;;;;6.25;4.25;;;21.40;34.70;;;;;;5014392;28;20385;-77
2022/07/13 01:24:28;;;;;;;8.23;4.90;;;21.40;34.70;;;;;;5013759;28;20466;-75
2022/07/13 01:26:54;;;;;;;6.50;4.70;;;21.30;34.80;;;;;;5014631;28;20446;-76
2022/07/13 01:29:20;;;;;;;5.25;4.68;;;21.30;35.00;;;;;;5013108;28;20476;-75
2022/07/13 01:31:45;;;;;;;6.90;4.37;;;21.30;35.00;;;;;;5012435;28;20393;-76
2022/07/13 01:34:11;;;;;;;6.70;4.90;;;21.30;35.80;;;;;;5012673;28;20412;-77
2022/07/13 01:36:37;;;;;;;14.23;5.07;;;21.20;36.40;;;;;;5012311;28;20383;-76
2022/07/13 01:39:04;;;;;;;8.50;4.90;;;21.30;36.20;;;;;;5012684;28;20385;-76
2022/07/13 01:41:30;;;;;;;6.25;4.50;;;21.30;36.20;;;;;;5010899;28;20916;-75
2022/07/13 01:43:57;;;;;;;5.90;4.60;;;21.30;36.30;;;;;;5011862;28;20396;-76
2022/07/13 01:46:27;;;;;;;6.82;4.05;;;21.30;35.80;;;;;;5013001;28;20388;-77
2022/07/13 01:48:54;;;;;;;7.95;5.10;;;21.30;35.40;;;;;;5017187;28;20389;-77
2022/07/13 01:51:19;;;;;;;7.07;4.22;;;21.30;35.20;;;;;;5020794;28;20479;-76
2022/07/13 01:53:45;;;;;;;6.03;4.63;;;21.40;34.40;;;;;;5017325;28;20451;-76
2022/07/13 01:56:12;;;;;;;6.60;4.50;;;21.30;34.50;;;;;;5016194;28;20396;-75
2022/07/13 01:58:37;;;;;;;6.75;4.32;;;21.30;33.50;;;;;;5015617;28;20603;-75
2022/07/13 02:01:03;;;;;;;7.80;4.40;;;21.30;34.10;;;;;;5015576;28;20845;-76
2022/07/13 02:03:30;;;;;;;4.90;4.30;;;21.30;32.90;;;;;;5015611;28;20396;-77
2022/07/13 02:05:56;;;;;;;4.90;4.00;;;21.30;33.00;;;;;;5016045;28;20413;-76
2022/07/13 02:08:23;;;;;;;5.90;4.18;;;21.30;32.70;;;;;;5036362;22;20530;-74
2022/07/13 02:10:49;;;;;;;5.68;4.18;;;21.40;32.20;;;;;;5053776;28;20385;-76
2022/07/13 02:13:15;;;;;;;6.22;4.70;;;21.40;32.10;;;;;;5053805;28;20378;-74
2022/07/13 02:15:42;;;;;;;4.53;3.50;;;21.50;31.40;;;;;;5054004;28;20463;-75
2022/07/13 02:18:08;;;;;;;5.87;3.67;;;21.50;31.50;;;;;;5069886;28;20418;-74
2022/07/13 02:20:35;;;;;;;5.20;3.70;;;21.50;31.50;;;;;;5061578;28;20986;-73
2022/07/13 02:23:00;;;;;;;5.82;3.78;;;21.40;31.40;;;;;;5061981;28;20849;-73
2022/07/13 02:25:26;;;;;;;3.97;3.58;;;21.40;31.60;;;;;;5054372;28;20406;-74
2022/07/13 02:27:52;;;;;;;5.80;3.88;;;21.40;31.20;;;;;;5052495;28;20398;-74
2022/07/13 02:30:17;;;;;;;4.47;3.73;;;21.40;31.90;;;;;;5053777;28;20384;-75
2022/07/13 02:32:45;;;;;;;5.03;3.63;;;21.40;31.20;;;;;;5053143;28;20425;-74
2022/07/13 02:35:12;;;;;;;4.50;3.60;;;21.40;31.20;;;;;;5053384;28;20401;-75
2022/07/13 02:37:37;;;;;;;10.32;4.05;;;21.40;30.70;;;;;;5053493;28;20400;-74
2022/07/13 02:40:08;;;;;;;4.35;3.70;;;21.40;31.00;;;;;;5052034;28;20382;-74
2022/07/13 02:42:34;;;;;;;6.00;3.55;;;21.40;30.90;;;;;;5053460;28;20384;-74
2022/07/13 02:45:00;;;;;;;8.07;3.80;;;21.40;31.50;;;;;;5053284;28;20392;-74
2022/07/13 02:47:25;;;;;;;4.87;3.80;;;21.40;30.90;;;;;;5051991;28;20842;-74
2022/07/13 02:49:51;;;;;;;4.93;3.30;;;21.50;30.30;;;;;;5053533;28;20468;-74
2022/07/13 02:52:16;;;;;;;5.88;3.80;;;21.40;30.60;;;;;;5053702;28;20784;-74
2022/07/13 02:54:42;;;;;;;5.30;3.50;;;21.40;30.50;;;;;;5053356;28;20432;-74
2022/07/13 02:57:08;;;;;;;6.63;3.60;;;21.40;30.40;;;;;;5053418;28;20381;-74
2022/07/13 02:59:36;;;;;;;3.95;3.60;;;21.40;30.30;;;;;;5052847;28;20810;-74
2022/07/13 03:02:02;;;;;;;3.65;3.25;;;21.40;30.20;;;;;;5052366;28;20802;-74
2022/07/13 03:04:28;;;;;;;3.78;3.15;;;21.40;30.10;;;;;;5051600;28;20390;-75
2022/07/13 03:06:54;;;;;;;4.95;3.40;;;21.40;30.30;;;;;;5052670;28;20377;-74
2022/07/13 03:09:19;;;;;;;6.90;3.50;;;21.40;30.20;;;;;;5052290;28;20394;-75
2022/07/13 03:11:45;;;;;;;3.30;3.00;;;21.40;30.30;;;;;;5052243;28;20518;-75
2022/07/13 03:14:10;;;;;;;8.57;3.67;;;21.50;30.30;;;;;;5052434;28;20399;-75
2022/07/13 03:16:36;;;;;;;4.40;2.90;;;21.40;30.00;;;;;;5052608;28;20798;-75
2022/07/13 03:19:02;;;;;;;3.40;3.10;;;21.40;30.00;;;;;;5051439;28;20386;-74
2022/07/13 03:21:29;;;;;;;4.32;3.60;;;21.50;29.90;;;;;;5052733;28;20881;-74
2022/07/13 03:23:55;;;;;;;3.83;3.25;;;21.50;29.50;;;;;;5052908;28;20396;-74
2022/07/13 03:26:21;;;;;;;4.05;3.45;;;21.50;29.70;;;;;;5052709;28;20805;-74
2022/07/13 03:28:46;;;;;;;5.28;3.17;;;21.50;29.70;;;;;;5052538;28;20377;-76
2022/07/13 03:31:12;;;;;;;3.70;3.40;;;21.40;29.60;;;;;;5050805;28;20513;-74
2022/07/13 03:33:37;;;;;;;5.47;3.50;;;21.40;29.80;;;;;;5052630;28;20523;-74
2022/07/13 03:36:03;;;;;;;3.90;3.50;;;21.50;29.70;;;;;;5052131;28;20476;-74
2022/07/13 03:38:29;;;;;;;4.33;3.40;;;21.40;29.90;;;;;;5052169;28;20388;-74
2022/07/13 03:40:54;;;;;;;5.60;3.80;;;21.50;29.60;;;;;;5052184;28;20420;-74
2022/07/13 03:43:20;;;;;;;4.18;3.78;;;21.40;29.80;;;;;;5052430;28;20389;-75
2022/07/13 03:45:46;;;;;;;4.90;3.20;;;21.50;29.90;;;;;;5052751;28;20390;-75
2022/07/13 03:48:13;;;;;;;4.10;3.60;;;21.50;29.80;;;;;;5052137;28;20385;-74
2022/07/13 03:50:39;;;;;;;5.78;3.80;;;21.50;29.90;;;;;;5052757;28;20816;-75
2022/07/13 03:53:05;;;;;;;4.70;3.57;;;21.50;29.90;;;;;;5051933;28;20369;-75
2022/07/13 03:55:30;;;;;;;4.63;3.37;;;21.50;29.70;;;;;;5051245;28;20397;-75
2022/07/13 03:57:56;;;;;;;8.00;3.65;;;21.50;29.70;;;;;;5051626;28;20389;-75
2022/07/13 04:00:21;;;;;;;5.20;3.03;;;21.50;29.60;;;;;;5052084;28;20488;-74
2022/07/13 04:02:47;;;;;;;5.77;3.30;;;21.50;29.80;;;;;;5051690;28;20807;-75
2022/07/13 04:05:13;;;;;;;3.50;3.20;;;21.50;29.70;;;;;;5052097;28;20694;-76
2022/07/13 04:07:38;;;;;;;4.13;3.33;;;21.50;29.50;;;;;;5053281;28;20385;-76
2022/07/13 04:10:04;;;;;;;3.47;3.28;;;21.60;29.20;;;;;;5055044;28;20892;-75
2022/07/13 04:12:29;;;;;;;9.45;3.90;;;21.60;29.30;;;;;;5064690;28;20409;-74
2022/07/13 04:14:55;;;;;;;5.07;3.63;;;21.60;29.60;;;;;;5061963;28;20408;-74
2022/07/13 04:17:21;;;;;;;4.60;3.60;;;21.70;29.30;;;;;;5069671;28;20452;-74
2022/07/13 04:19:46;;;;;;;4.82;3.60;;;21.80;28.60;;;;;;5069021;28;20381;-73
2022/07/13 04:22:12;;;;;;;3.30;3.00;;;21.80;28.70;;;;;;5064752;28;20382;-77
2022/07/13 04:24:37;;;;;;;4.20;3.15;;;21.80;28.50;;;;;;5061177;28;20476;-73
2022/07/13 04:27:03;;;;;;;6.23;3.20;;;21.80;28.70;;;;;;5058650;28;20429;-74
2022/07/13 04:29:29;;;;;;;6.00;3.60;;;21.80;28.80;;;;;;5063066;28;20393;-74
2022/07/13 04:31:54;;;;;;;4.75;3.10;;;21.80;29.00;;;;;;5057552;28;20396;-75
2022/07/13 04:34:20;;;;;;;6.17;3.20;;;21.80;28.80;;;;;;5054110;28;20407;-73
2022/07/13 04:36:45;;;;;;;5.60;3.45;;;21.80;29.10;;;;;;5051986;28;20433;-74
2022/07/13 04:39:12;;;;;;;13.67;4.80;;;21.80;29.10;;;;;;5050475;28;20378;-75
2022/07/13 04:41:38;;;;;;;6.03;3.37;;;21.80;28.90;;;;;;5056940;28;20381;-74
2022/07/13 04:44:04;;;;;;;6.40;3.30;;;21.80;28.90;;;;;;5050936;28;20385;-75
2022/07/13 04:46:29;;;;;;;4.40;3.50;;;21.80;29.10;;;;;;5051710;28;20420;-75
2022/07/13 04:48:55;;;;;;;7.43;3.40;;;21.80;28.70;;;;;;5051252;28;20382;-75
2022/07/13 04:51:20;;;;;;;5.25;3.95;;;21.80;28.90;;;;;;5050704;28;20804;-75
2022/07/13 04:53:46;;;;;;;4.30;3.47;;;21.90;28.40;;;;;;5051066;28;20905;-75
2022/07/13 04:56:12;;;;;;;6.63;3.40;;;22.00;28.40;;;;;;5051530;28;20908;-75
2022/07/13 04:58:38;;;;;;;5.18;3.60;;;21.90;28.70;;;;;;5050926;28;20749;-75
2022/07/13 05:01:07;;;;;;;5.20;3.22;;;22.00;28.40;;;;;;5050736;28;20440;-75
2022/07/13 05:03:33;;;;;;;3.30;3.00;;;22.10;28.30;;;;;;5050974;28;20393;-75
2022/07/13 05:05:59;;;;;;;8.70;3.50;;;22.10;28.60;;;;;;5050901;28;20939;-75
2022/07/13 05:08:25;;;;;;;7.03;3.50;;;22.10;28.60;;;;;;5051170;28;20481;-74
2022/07/13 05:10:51;;;;;;;3.80;3.20;;;22.10;28.50;;;;;;5050964;28;20969;-76
2022/07/13 05:13:17;;;;;;;3.50;3.20;;;22.20;27.90;;;;;;5050970;28;20413;-74
2022/07/13 05:15:43;;;;;;;5.38;3.20;;;22.20;28.10;;;;;;5050490;28;20421;-73
2022/07/13 05:18:08;;;;;;;7.90;3.67;;;22.20;28.20;;;;;;5050902;28;20377;-75
2022/07/13 05:20:34;;;;;;;4.60;3.13;;;22.20;28.40;;;;;;5050702;28;20746;-75
2022/07/13 05:22:59;;;;;;;5.10;3.40;;;22.30;28.20;;;;;;5036613;28;20397;-73
2022/07/13 05:25:25;;;;;;;5.50;3.40;;;22.40;27.90;;;;;;5054472;28;20397;-75
2022/07/13 05:27:50;;;;;;;5.50;3.40;;;22.50;27.40;;;;;;5054164;28;20804;-75
2022/07/13 05:30:16;;;;;;;6.80;3.10;;;22.60;27.00;;;;;;5053269;28;20482;-74
2022/07/13 05:32:42;;;;;;;5.50;3.10;;;22.70;26.40;;;;;;5039394;28;20404;-77
2022/07/13 05:35:08;;;;;;;9.90;3.60;;;22.90;26.20;;;;;;5034671;28;20474;-75
2022/07/13 05:37:33;;;;;;;17.23;9.83;;;23.00;25.80;;;;;;5034109;28;20407;-74
2022/07/13 05:39:59;;;;;;;24.75;17.80;;;23.10;25.50;;;;;;5034754;28;20454;-73
2022/07/13 05:42:26;;;;;;;14.48;9.50;;;23.20;25.00;;;;;;5052993;28;20421;-75
2022/07/13 05:44:52;;;;;;;10.57;6.00;;;23.30;24.90;;;;;;5036854;28;20398;-73
2022/07/13 05:47:18;;;;;;;8.95;3.80;;;23.40;24.50;;;;;;5034188;28;20383;-73
2022/07/13 05:49:43;;;;;;;4.50;3.70;;;23.50;24.40;;;;;;5034606;28;20383;-74
2022/07/13 05:52:09;;;;;;;5.50;3.80;;;23.50;24.30;;;;;;5049781;28;20451;-74
2022/07/13 05:54:35;;;;;;;5.82;3.90;;;23.60;23.70;;;;;;5033612;28;20399;-74
2022/07/13 05:57:01;;;;;;;7.10;3.70;;;23.80;23.20;;;;;;5043378;28;20869;-74
2022/07/13 05:59:27;;;;;;;4.40;3.53;;;23.80;23.00;;;;;;5053926;28;20381;-76
2022/07/13 06:01:53;;;;;;;6.80;4.10;;;23.80;23.50;;;;;;5053722;28;20384;-73
2022/07/13 06:04:19;;;;;;;7.47;3.70;;;23.80;23.20;;;;;;5054017;28;20423;-73
2022/07/13 06:06:45;;;;;;;8.73;3.90;;;23.80;23.10;;;;;;5053627;28;20378;-73
2022/07/13 06:09:11;;;;;;;7.20;3.50;;;23.80;23.00;;;;;;5043213;28;20452;-75
2022/07/13 06:11:37;;;;;;;7.20;3.70;;;23.80;23.30;;;;;;5033751;28;20529;-75
2022/07/13 06:14:02;;;;;;;6.93;3.70;;;24.00;22.80;;;;;;5034078;28;20438;-75
2022/07/13 06:16:28;;;;;;;12.40;4.10;;;24.10;22.00;;;;;;5045040;28;20400;-76
2022/07/13 06:18:54;;;;;;;19.52;11.20;;;24.20;21.60;;;;;;5034544;28;20462;-74
2022/07/13 06:21:19;;;;;;;10.60;6.53;;;24.30;21.70;;;;;;5038825;28;20434;-75
2022/07/13 06:23:45;;;;;;;9.57;5.75;;;24.30;21.50;;;;;;5053921;28;20437;-76
2022/07/13 06:26:10;;;;;;;8.23;4.20;;;24.50;21.00;;;;;;5053285;28;20429;-75
2022/07/13 06:28:36;;;;;;;9.50;4.07;;;24.60;20.90;;;;;;5053669;28;20393;-74
2022/07/13 06:31:01;;;;;;;9.20;3.87;;;24.70;20.40;;;;;;5053455;28;20425;-75
2022/07/13 06:33:27;;;;;;;5.10;3.63;;;24.90;20.10;;;;;;5042552;28;20497;-75
2022/07/13 06:35:52;;;;;;;6.57;3.60;;;24.90;19.80;;;;;;5034075;28;20403;-74
2022/07/13 06:38:18;;;;;;;6.63;3.47;;;24.90;20.20;;;;;;5039172;28;20468;-74
2022/07/13 06:40:46;;;;;;;8.30;3.60;;;24.70;20.50;;;;;;5044425;28;20385;-74
2022/07/13 06:43:12;;;;;;;7.40;3.90;;;24.70;20.70;;;;;;5053950;28;20413;-75
2022/07/13 06:45:37;;;;;;;8.30;3.90;;;24.60;21.00;;;;;;5038149;28;20395;-75
2022/07/13 06:48:03;;;;;;;10.85;4.53;;;24.50;21.10;;;;;;5035482;28;20386;-76
2022/07/13 06:50:29;;;;;;;6.75;3.95;;;24.50;21.30;;;;;;5034305;28;20373;-75
2022/07/13 06:52:54;;;;;;;7.60;4.27;;;24.80;21.00;;;;;;5033205;28;20890;-75
2022/07/13 06:55:20;;;;;;;22.47;8.53;;;24.80;20.90;;;;;;5033842;28;20545;-75
2022/07/13 06:57:45;;;;;;;13.13;5.95;;;25.00;20.30;;;;;;5047935;28;21251;-76
2022/07/13 07:00:12;;;;;;;10.87;6.10;;;25.10;19.90;;;;;;5051044;28;20414;-79
2022/07/13 07:02:37;;;;;;;12.48;4.82;;;25.30;19.50;;;;;;5040078;28;20645;-77
2022/07/13 07:05:09;;;;;;;8.80;4.70;;;25.50;18.90;;;;;;5052247;28;20803;-77
2022/07/13 07:07:36;;;;;;;9.77;3.90;;;25.70;18.90;;;;;;5053786;28;20469;-75
2022/07/13 07:10:02;;;;;;;10.05;4.20;;;25.80;18.60;;;;;;5055430;28;20412;-76
2022/07/13 07:12:27;;;;;;;9.32;4.03;;;25.90;18.30;;;;;;5055588;28;20397;-76
2022/07/13 07:14:53;;;;;;;10.30;4.10;;;26.00;18.60;;;;;;5055209;28;20485;-76
2022/07/13 07:17:18;;;;;;;10.45;4.30;;;26.20;18.40;;;;;;5040446;28;20467;-76
2022/07/13 07:19:47;;;;;;;12.60;4.23;;;26.30;18.60;;;;;;5032992;28;20419;-74
2022/07/13 07:22:13;;;;;;;10.02;4.20;;;26.30;18.40;;;;;;5031955;28;20460;-75
2022/07/13 07:24:40;;;;;;;9.57;4.00;;;26.40;18.10;;;;;;5034410;28;20395;-76
2022/07/13 07:27:07;;;;;;;8.73;3.75;;;26.60;17.30;;;;;;5037613;28;20448;-77
2022/07/13 07:29:34;;;;;;;9.93;4.22;;;26.50;17.70;;;;;;5111880;23;20798;-76
2022/07/13 07:32:01;;;;;;;7.30;4.00;;;26.60;17.70;;;;;;5056842;28;20781;-74
2022/07/13 07:34:27;;;;;;;5.67;3.90;;;26.80;16.80;;;;;;5049432;28;20406;-74
2022/07/13 07:36:53;;;;;;;8.13;3.73;;;26.90;16.90;;;;;;5052975;28;20762;-74
2022/07/13 07:39:19;;;;;;;9.15;4.00;;;27.20;16.70;;;;;;5050277;28;20386;-75
2022/07/13 07:41:44;;;;;;;9.43;3.77;;;27.50;16.00;;;;;;5052407;28;20389;-75
2022/07/13 07:44:10;;;;;;;7.65;3.70;;;27.70;14.40;;;;;;5051784;28;20860;-75
2022/07/13 07:46:36;;;;;;;9.73;4.00;;;28.00;14.30;;;;;;5051435;28;20384;-74
2022/07/13 07:49:03;;;;;;;8.68;3.78;;;28.10;13.70;;;;;;5051777;28;20443;-74
2022/07/13 07:51:29;;;;;;;8.65;3.85;;;28.20;13.10;;;;;;5051611;28;20464;-75
2022/07/13 07:53:55;;;;;;;7.07;4.03;;;28.60;12.60;;;;;;5051775;28;20877;-75
2022/07/13 07:56:21;;;;;;;4.80;2.92;;;28.90;11.60;;;;;;5053004;28;20385;-74
2022/07/13 07:58:47;;;;;;;7.03;3.10;;;29.00;9.90;;;;;;5053420;28;20413;-74
2022/07/13 08:01:12;;;;;;;4.47;3.00;;;29.00;10.30;;;;;;5054096;28;20451;-75
2022/07/13 08:03:38;;;;;;;4.27;3.00;;;29.00;9.80;;;;;;5054229;28;20385;-75
2022/07/13 08:06:04;;;;;;;6.43;3.30;;;29.00;10.50;;;;;;5054809;28;20385;-75
2022/07/13 08:08:30;;;;;;;7.50;3.30;;;29.00;10.40;;;;;;5055307;28;20835;-75
2022/07/13 08:10:55;;;;;;;7.82;2.80;;;29.20;9.50;;;;;;5050409;28;20393;-74
2022/07/13 08:13:21;;;;;;;4.38;3.20;;;29.30;9.30;;;;;;5043560;28;20399;-73
2022/07/13 08:15:47;;;;;;;11.47;3.20;;;29.60;9.10;;;;;;5032035;28;20398;-74
2022/07/13 08:18:13;;;;;;;6.30;3.15;;;29.80;9.00;;;;;;5040620;28;20492;-74
2022/07/13 08:20:38;;;;;;;9.55;3.10;;;29.70;8.50;;;;;;5051612;28;20378;-74
2022/07/13 08:23:50;;;;;;;6.10;3.50;;;29.30;8.40;;;;;;5051295;28;20458;-74
2022/07/13 08:25:49;;;;;;;4.70;3.00;;;29.10;8.80;;;;;;5053108;28;20821;-74
2022/07/13 08:28:15;;;;;;;3.97;3.00;;;29.00;8.40;;;;;;5051159;28;20415;-74
2022/07/13 08:30:41;;;;;;;11.80;2.90;;;29.10;8.10;;;;;;5051344;28;20465;-74
2022/07/13 08:33:07;;;;;;;5.53;2.90;;;29.20;8.20;;;;;;5051249;28;20780;-74
2022/07/13 08:38:35;;;;;;;3.22;2.88;;;29.30;6.50;;;;;;5051077;28;20403;-75
2022/07/13 08:41:01;;;;;;;8.32;3.08;;;29.60;5.30;;;;;;5049829;28;20389;-74
2022/07/13 08:43:27;;;;;;;4.60;2.60;;;29.60;5.50;;;;;;5051056;28;20871;-75
2022/07/13 08:45:53;;;;;;;3.70;2.78;;;29.70;4.60;;;;;;5051290;28;20434;-74
2022/07/13 08:48:29;;;;;;;3.78;2.78;;;29.50;4.60;;;;;;5051255;28;20377;-73
2022/07/13 08:50:55;;;;;;;5.45;2.85;;;29.20;5.50;;;;;;5051193;28;20407;-76
2022/07/13 08:53:21;;;;;;;3.47;2.90;;;29.10;5.70;;;;;;5051177;28;20373;-73
2022/07/13 08:55:48;;;;;;;6.57;2.72;;;29.30;5.80;;;;;;5051348;28;20393;-74
2022/07/13 08:58:16;;;;;;;3.20;2.90;;;29.80;4.90;;;;;;5051263;28;20432;-76
2022/07/13 09:00:42;;;;;;;4.93;2.80;;;30.10;4.80;;;;;;5053273;28;20382;-73
2022/07/13 09:03:08;;;;;;;6.47;3.00;;;30.50;3.70;;;;;;5063318;28;20392;-74
2022/07/13 09:05:34;;;;;;;3.22;2.90;;;30.60;3.50;;;;;;5065874;28;20397;-74
2022/07/13 09:08:02;;;;;;;4.78;2.80;;;30.30;3.80;;;;;;5062957;28;20365;-74
2022/07/13 09:10:28;;;;;;;5.93;3.20;;;30.10;4.10;;;;;;5061731;28;20981;-74
2022/07/13 09:12:54;;;;;;;4.30;3.20;;;29.80;4.60;;;;;;5049654;28;20875;-74
2022/07/13 09:15:19;;;;;;;6.80;3.00;;;29.80;4.60;;;;;;5050851;28;20492;-73
2022/07/13 09:17:47;;;;;;;6.10;3.10;;;30.00;4.70;;;;;;5049541;28;20386;-74
2022/07/13 09:20:12;;;;;;;5.00;3.10;;;30.30;5.10;;;;;;5050852;28;20377;-74
2022/07/13 09:22:58;;;;;;;7.67;3.20;;;30.50;4.20;;;;;;5050243;28;20408;-73
2022/07/13 09:25:34;;;;;;;3.47;2.83;;;30.50;4.30;;;;;;5050774;28;20388;-74
2022/07/13 09:28:02;;;;;;;10.10;3.30;;;30.60;3.70;;;;;;5050687;28;20727;-74
2022/07/13 09:30:28;;;;;;;3.17;2.88;;;30.60;4.00;;;;;;5050930;28;20377;-74
2022/07/13 09:32:55;;;;;;;7.15;3.25;;;30.60;3.90;;;;;;5048947;28;20893;-74
2022/07/13 09:35:40;;;;;;;5.13;3.50;;;30.50;4.20;;;;;;5050337;28;20419;-74
2022/07/13 09:38:05;;;;;;;5.15;3.38;;;30.40;4.10;;;;;;5050578;28;20396;-74
2022/07/13 09:40:31;;;;;;;6.50;3.38;;;30.60;4.40;;;;;;5050505;28;20389;-74
2022/07/13 09:48:26;;;;;;;4.55;2.83;;;30.40;4.60;;;;;;5050351;28;20699;-76
2022/07/13 09:50:54;;;;;;;9.80;3.93;;;30.50;4.50;;;;;;5048853;28;20389;-73
2022/07/13 09:53:33;;;;;;;7.80;3.33;;;30.50;4.60;;;;;;5050005;28;20878;-74
2022/07/13 09:56:00;;;;;;;4.80;2.97;;;30.70;4.60;;;;;;5050070;28;20391;-74
2022/07/13 09:58:32;;;;;;;4.55;3.10;;;30.80;4.10;;;;;;5050131;28;20429;-74
2022/07/13 10:00:58;;;;;;;4.53;2.80;;;30.80;4.50;;;;;;5050129;28;20466;-74
2022/07/13 10:03:25;;;;;;;6.18;2.95;;;30.80;4.20;;;;;;5050289;28;20431;-75
2022/07/13 10:05:54;;;;;;;6.10;2.90;;;30.90;4.20;;;;;;5048724;28;20746;-74
2022/07/13 10:08:21;;;;;;;6.13;3.08;;;31.00;4.60;;;;;;5048722;28;20412;-74
2022/07/13 10:10:48;;;;;;;5.43;2.80;;;30.80;4.20;;;;;;5052292;28;20435;-74
2022/07/13 10:13:14;;;;;;;3.50;2.85;;;30.50;5.10;;;;;;5053613;28;20392;-75
2022/07/13 10:15:40;;;;;;;4.32;2.50;;;30.50;5.30;;;;;;5053651;28;20409;-74
2022/07/13 10:18:12;;;;;;;4.77;3.00;;;30.60;4.90;;;;;;5053776;28;20467;-73
2022/07/13 10:20:42;;;;;;;7.40;2.63;;;30.60;5.10;;;;;;5053555;28;20427;-73
2022/07/13 10:23:08;;;;;;;5.47;2.90;;;30.70;5.20;;;;;;5053516;28;20750;-76
2022/07/13 10:25:45;;;;;;;5.00;2.80;;;30.80;4.80;;;;;;5053866;28;20472;-74
2022/07/13 10:28:12;;;;;;;5.53;3.25;;;30.90;5.00;;;;;;5053447;28;20388;-75
2022/07/13 10:30:38;;;;;;;9.68;2.85;;;31.20;4.90;;;;;;5053837;28;20382;-75
2022/07/13 10:33:20;;;;;;;3.40;2.50;;;31.30;4.70;;;;;;5052312;28;20451;-75
2022/07/13 10:35:48;;;;;;;5.47;2.60;;;30.80;5.20;;;;;;5052402;28;20385;-74
2022/07/13 10:38:15;;;;;;;7.53;2.60;;;30.20;6.40;;;;;;5053590;28;20377;-75
2022/07/13 10:40:41;;;;;;;7.77;2.93;;;29.90;6.90;;;;;;5053585;28;20385;-73
2022/07/13 10:43:09;;;;;;;4.53;2.78;;;29.90;7.40;;;;;;5053542;28;20381;-75
2022/07/13 10:48:06;;;;;;;9.40;3.00;;;30.30;7.40;;;;;;5053571;28;20734;-74
2022/07/13 10:50:59;;;;;;;4.10;2.50;;;30.40;7.20;;;;;;5053284;28;20897;-75
2022/07/13 10:53:43;;;;;;;4.80;2.70;;;30.50;6.90;;;;;;5052378;28;20404;-75
2022/07/13 10:56:19;;;;;;;3.10;2.80;;;30.70;6.30;;;;;;5053485;28;20378;-76
2022/07/13 10:58:47;;;;;;;3.92;2.97;;;30.90;6.40;;;;;;5053207;28;20381;-75
2022/07/13 11:01:32;;;;;;;4.40;2.50;;;31.20;6.10;;;;;;5053087;28;20456;-74
2022/07/13 11:03:57;;;;;;;4.47;2.50;;;31.30;6.10;;;;;;5053180;28;20392;-75
2022/07/13 11:06:24;;;;;;;3.60;2.70;;;31.50;5.70;;;;;;5053242;28;20411;-75
2022/07/13 11:09:11;;;;;;;6.32;2.60;;;31.60;5.10;;;;;;5052858;28;20728;-75
2022/07/13 11:11:45;;;;;;;3.83;2.40;;;31.50;5.30;;;;;;5052770;28;20977;-74
2022/07/13 11:14:36;;;;;;;7.53;2.53;;;31.50;5.30;;;;;;5053008;28;20404;-76
2022/07/13 11:17:11;;;;;;;5.20;2.40;;;31.40;5.40;;;;;;5044522;28;20431;-75
2022/07/13 11:20:00;;;;;;;6.65;3.50;;;31.50;5.60;;;;;;5052746;28;20442;-74
2022/07/13 11:25:14;;;;;;;8.30;2.60;;;31.50;6.30;;;;;;5052011;28;20382;-74
2022/07/13 11:25:35;;;;;;;4.70;3.05;;;31.60;5.50;;;;;;5052557;28;20385;-75
2022/07/13 11:28:24;;;;;;;5.43;2.58;;;31.80;5.00;;;;;;5052364;28;20464;-75
2022/07/13 11:30:54;;;;;;;3.80;2.90;;;31.80;4.80;;;;;;5052561;28;20476;-74
2022/07/13 11:33:20;;;;;;;8.52;2.63;;;32.00;5.00;;;;;;5052317;28;20501;-75
2022/07/13 11:35:47;;;;;;;4.55;2.33;;;32.10;4.50;;;;;;5051987;28;20389;-75
2022/07/13 11:38:16;;;;;;;2.30;2.10;;;31.90;4.60;;;;;;5037662;28;20890;-76
2022/07/13 11:40:43;;;;;;;5.10;2.22;;;31.90;4.80;;;;;;5031833;28;20908;-75
2022/07/13 11:43:09;;;;;;;4.15;2.28;;;31.90;4.40;;;;;;5032194;28;20803;-75
2022/07/13 11:45:39;;;;;;;5.35;2.10;;;31.80;4.70;;;;;;5044229;28;20763;-75
2022/07/13 11:48:05;;;;;;;3.92;2.22;;;31.60;4.90;;;;;;5032542;28;20383;-74
2022/07/13 11:50:41;;;;;;;2.90;2.33;;;31.50;5.60;;;;;;5033338;28;20399;-75
2022/07/13 11:53:07;;;;;;;5.53;2.80;;;31.00;6.30;;;;;;5032473;28;20394;-75
2022/07/13 11:55:35;;;;;;;7.50;3.10;;;30.80;6.90;;;;;;5031830;28;20410;-73
2022/07/13 11:58:01;;;;;;;5.10;2.30;;;31.20;6.50;;;;;;5032569;28;20383;-74
2022/07/13 12:00:27;;;;;;;2.60;2.20;;;31.40;6.00;;;;;;5032326;28;20450;-74
2022/07/13 12:02:52;;;;;;;4.30;2.50;;;31.50;5.90;;;;;;5033103;28;20693;-75
2022/07/13 12:05:28;;;;;;;4.10;2.63;;;31.60;5.80;;;;;;5033444;28;20720;-75
2022/07/13 12:08:01;;;;;;;6.40;3.50;;;31.70;5.80;;;;;;5032399;28;20390;-75
2022/07/13 12:10:27;;;;;;;8.40;2.78;;;31.90;5.50;;;;;;5031970;28;20386;-75
2022/07/13 12:12:53;;;;;;;3.07;2.60;;;32.10;5.60;;;;;;5031574;28;20819;-73
2022/07/13 12:15:19;;;;;;;6.80;2.70;;;31.90;5.50;;;;;;5032061;28;20407;-74
2022/07/13 12:17:50;;;;;;;3.90;2.60;;;32.10;5.30;;;;;;5032143;28;20475;-73
2022/07/13 12:20:18;;;;;;;3.78;2.40;;;32.00;5.40;;;;;;5031861;28;20438;-74
2022/07/13 12:22:54;;;;;;;3.83;2.60;;;32.20;5.40;;;;;;5031432;28;20410;-74
2022/07/13 12:25:32;;;;;;;6.95;2.50;;;31.90;5.80;;;;;;5031694;28;20387;-73
2022/07/13 12:27:59;;;;;;;5.65;2.90;;;32.20;5.70;;;;;;5031781;28;20398;-73
2022/07/13 12:30:24;;;;;;;4.40;2.60;;;32.30;5.30;;;;;;5030994;28;20509;-75
2022/07/13 12:33:03;;;;;;;7.40;2.70;;;32.00;5.90;;;;;;5031059;28;20422;-74
2022/07/13 12:35:36;;;;;;;4.73;2.93;;;31.90;5.80;;;;;;5031237;28;20879;-76
2022/07/13 12:38:04;;;;;;;6.70;2.97;;;31.90;6.30;;;;;;5030963;28;20482;-74
2022/07/13 12:40:42;;;;;;;4.50;3.10;;;31.90;6.60;;;;;;5031143;28;20667;-74
2022/07/13 12:43:28;;;;;;;5.30;2.70;;;32.20;5.60;;;;;;5031352;28;20391;-75
2022/07/13 12:45:56;;;;;;;6.60;3.63;;;32.50;5.20;;;;;;5031276;28;20768;-73
2022/07/13 12:48:23;;;;;;;11.93;2.70;;;32.90;5.00;;;;;;5029964;28;20391;-74
2022/07/13 12:51:00;;;;;;;5.60;2.60;;;32.80;4.80;;;;;;5030877;28;20451;-74
2022/07/13 12:53:48;;;;;;;3.65;2.67;;;33.10;5.20;;;;;;5029695;28;20441;-74
2022/07/13 12:56:18;;;;;;;6.40;3.40;;;32.80;4.70;;;;;;5030861;28;20374;-74
2022/07/13 12:58:52;;;;;;;7.63;4.00;;;32.90;4.60;;;;;;5029571;28;20799;-74
2022/07/13 13:01:37;;;;;;;4.05;2.72;;;33.00;4.90;;;;;;5030874;28;20436;-74
2022/07/13 13:04:11;;;;;;;5.07;2.97;;;32.60;5.70;;;;;;5031176;28;20487;-75